Main page
METAR-TAF:

METAR-TAF

Airports :

Bahrain International Airport

Bahrain, Bahrain

latitude: 26-16N, longitude: 050-39E, elevation: 2 m

Current weather observation

The report was made 12 minutes ago, at 23:00 UTC
Wind 6 kt from the West/Northwest
Temperature 17°C
Humidity 88%
Pressure 1021 hPa
Visibility: 7000 m
Clear sky

METAR: OBBI 252300Z 29006KT 7000 SKC 17/15 Q1021 BECMG 5000 HZ

Time: 02:12 (23:12 UTC)

Forecast

The report was made 6 hours and 12 minutes ago, at 17:00 UTC
Forecast valid from 25 at 18 UTC to 27 at 00 UTC
Wind 8 kt from the West/Northwest
Visibility: 8000 m
Probability 30% :
Temporary
from 25 at 23 UTC to 26 at 04 UTC
Visibility: 4000 m
haze

TAF: OBBI 251700Z 2518/2700 30008KT 8000 NSC PROB30 TEMPO 2523/2604 4000 HZ

Weather observations and forecasts of more than 4000 airports (METAR and TAF reports).

The available stations are represented by yellow and red dots on the map.

Hover mouse over dot to see the name of the station.

Then click to see weather observations and forecasts.

To change the map : click on the green buttons with a black cross to zoom in, on the green button with a dash to zoom out, or on the green arrows for adjacent maps.


METAR-TAF: